createdAt,value
2018-09-06T00:04:00.000Z,17.7
2018-09-06T00:09:00.000Z,17.6
2018-09-06T00:14:00.000Z,17.6
2018-09-06T00:19:00.000Z,17.5
2018-09-06T00:24:00.000Z,17.5
2018-09-06T00:29:00.000Z,17.5
2018-09-06T00:34:00.000Z,17.5
2018-09-06T00:39:00.000Z,17.5
2018-09-06T00:44:00.000Z,17.5
2018-09-06T00:49:00.000Z,17.5
2018-09-06T00:54:00.000Z,17.5
2018-09-06T00:59:00.000Z,17.4
2018-09-06T01:04:00.000Z,17.4
2018-09-06T01:09:00.000Z,17.3
2018-09-06T01:14:00.000Z,17.3
2018-09-06T01:19:00.000Z,17.3
2018-09-06T01:24:00.000Z,17.3
2018-09-06T01:29:00.000Z,17.2
2018-09-06T01:34:00.000Z,17.2
2018-09-06T01:39:00.000Z,17.1
2018-09-06T01:44:00.000Z,17.1
2018-09-06T01:49:00.000Z,17.0
2018-09-06T01:54:00.000Z,17.0
2018-09-06T01:59:00.000Z,17.0
2018-09-06T02:04:00.000Z,16.9
2018-09-06T02:09:00.000Z,16.9
2018-09-06T02:14:00.000Z,16.9
2018-09-06T02:19:00.000Z,16.8
2018-09-06T02:24:00.000Z,16.8
2018-09-06T02:29:00.000Z,16.8
2018-09-06T02:34:00.000Z,16.8
2018-09-06T02:39:00.000Z,16.8
2018-09-06T02:44:00.000Z,16.8
2018-09-06T02:49:00.000Z,16.7
2018-09-06T02:54:00.000Z,16.7
2018-09-06T02:59:00.000Z,16.7
2018-09-06T03:04:00.000Z,16.7
2018-09-06T03:09:00.000Z,16.6
2018-09-06T03:14:00.000Z,16.6
2018-09-06T03:19:00.000Z,16.6
2018-09-06T03:24:00.000Z,16.5
2018-09-06T03:29:00.000Z,16.5
2018-09-06T03:34:00.000Z,16.5
2018-09-06T03:39:00.000Z,16.5
2018-09-06T03:44:00.000Z,16.5
2018-09-06T03:49:00.000Z,16.5
2018-09-06T03:54:00.000Z,16.5
2018-09-06T03:59:00.000Z,16.5
2018-09-06T04:04:00.000Z,16.5
2018-09-06T04:10:00.000Z,16.5
2018-09-06T04:15:00.000Z,16.5
2018-09-06T04:20:00.000Z,16.5
2018-09-06T04:25:00.000Z,16.5
2018-09-06T04:30:00.000Z,16.4
2018-09-06T04:35:00.000Z,16.4
2018-09-06T04:40:00.000Z,16.4
2018-09-06T04:45:00.000Z,16.4
2018-09-06T04:50:00.000Z,16.4
2018-09-06T04:55:00.000Z,16.4
2018-09-06T05:00:00.000Z,16.4
2018-09-06T05:05:00.000Z,16.5
2018-09-06T05:10:00.000Z,16.5
2018-09-06T05:15:00.000Z,16.6
2018-09-06T05:20:00.000Z,16.6
2018-09-06T05:25:00.000Z,16.6
2018-09-06T05:30:00.000Z,16.7
2018-09-06T05:35:00.000Z,16.7
2018-09-06T05:40:00.000Z,16.8
2018-09-06T05:45:00.000Z,16.9
2018-09-06T05:50:00.000Z,16.9
2018-09-06T05:55:00.000Z,17.0
2018-09-06T06:00:00.000Z,17.1
2018-09-06T06:05:00.000Z,17.2
2018-09-06T06:10:00.000Z,17.3
2018-09-06T06:15:00.000Z,17.4
2018-09-06T06:20:00.000Z,17.5
2018-09-06T06:25:00.000Z,17.6
2018-09-06T06:30:00.000Z,17.8
2018-09-06T06:35:00.000Z,17.9
2018-09-06T06:40:00.000Z,18.1
2018-09-06T06:45:00.000Z,18.3
2018-09-06T06:50:00.000Z,18.5
2018-09-06T06:55:00.000Z,18.7
2018-09-06T07:00:00.000Z,18.9
2018-09-06T07:05:00.000Z,19.1
2018-09-06T07:10:00.000Z,19.4
2018-09-06T07:15:00.000Z,19.6
2018-09-06T07:20:00.000Z,19.7
2018-09-06T07:25:00.000Z,19.9
2018-09-06T07:30:00.000Z,20.1
2018-09-06T07:35:00.000Z,20.3
2018-09-06T07:40:00.000Z,20.4
2018-09-06T07:45:00.000Z,20.6
2018-09-06T07:50:00.000Z,20.7
2018-09-06T07:55:00.000Z,20.9
2018-09-06T08:00:00.000Z,21.0
2018-09-06T08:05:00.000Z,21.2
2018-09-06T08:10:00.000Z,21.7
2018-09-06T08:15:00.000Z,22.7
2018-09-06T08:20:00.000Z,24.0
2018-09-06T08:25:00.000Z,25.3
2018-09-06T08:30:00.000Z,26.2
2018-09-06T08:35:00.000Z,27.0
2018-09-06T08:40:00.000Z,27.8
2018-09-06T08:45:00.000Z,28.5
2018-09-06T08:50:00.000Z,29.1
2018-09-06T08:55:00.000Z,29.6
2018-09-06T09:00:00.000Z,29.9
2018-09-06T09:05:00.000Z,30.0
2018-09-06T09:10:00.000Z,30.0
2018-09-06T09:15:00.000Z,29.4
2018-09-06T09:20:00.000Z,29.0
2018-09-06T09:26:00.000Z,28.8
2018-09-06T09:31:00.000Z,29.2
2018-09-06T09:36:00.000Z,29.3
2018-09-06T09:41:00.000Z,29.4
2018-09-06T09:51:00.000Z,29.8
2018-09-06T09:56:00.000Z,30.1
2018-09-06T10:01:00.000Z,30.2
2018-09-06T10:06:00.000Z,30.3
2018-09-06T10:11:00.000Z,30.2
2018-09-06T10:16:00.000Z,30.1
2018-09-06T10:21:00.000Z,30.1
2018-09-06T10:26:00.000Z,30.2
2018-09-06T10:31:00.000Z,30.4
2018-09-06T10:36:00.000Z,30.6
2018-09-06T10:41:00.000Z,30.6
2018-09-06T10:46:00.000Z,30.5
2018-09-06T10:51:00.000Z,30.5
2018-09-06T10:56:00.000Z,30.6
2018-09-06T11:01:00.000Z,30.4
2018-09-06T11:06:00.000Z,30.1
2018-09-06T11:11:00.000Z,29.8
2018-09-06T11:16:00.000Z,29.4
2018-09-06T11:21:00.000Z,29.1
2018-09-06T11:26:00.000Z,28.9
2018-09-06T11:31:00.000Z,28.7
2018-09-06T11:36:00.000Z,28.3
2018-09-06T11:41:00.000Z,28.0
2018-09-06T11:46:00.000Z,27.7
2018-09-06T11:51:00.000Z,27.3
2018-09-06T11:56:00.000Z,27.0
2018-09-06T12:01:00.000Z,27.0
2018-09-06T12:06:00.000Z,27.4
2018-09-06T12:11:00.000Z,27.6
2018-09-06T12:16:00.000Z,27.7
2018-09-06T12:21:00.000Z,27.6
2018-09-06T12:26:00.000Z,27.3
2018-09-06T12:31:00.000Z,27.1
2018-09-06T12:36:00.000Z,27.4
2018-09-06T12:41:00.000Z,27.8
2018-09-06T12:46:00.000Z,27.8
2018-09-06T12:51:00.000Z,27.6
2018-09-06T12:56:00.000Z,27.4
2018-09-06T13:01:00.000Z,27.1
2018-09-06T13:06:00.000Z,27.0
2018-09-06T13:11:00.000Z,27.4
2018-09-06T13:16:00.000Z,27.8
2018-09-06T13:21:00.000Z,28.0
2018-09-06T13:26:00.000Z,27.9
2018-09-06T13:31:00.000Z,27.7
2018-09-06T13:36:00.000Z,27.5
2018-09-06T13:41:00.000Z,27.6
2018-09-06T13:46:00.000Z,27.9
2018-09-06T13:51:00.000Z,28.3
2018-09-06T13:56:00.000Z,28.5
2018-09-06T14:01:00.000Z,28.6
2018-09-06T14:06:00.000Z,28.4
2018-09-06T14:11:00.000Z,28.1
2018-09-06T14:16:00.000Z,28.0
2018-09-06T14:21:00.000Z,28.1
2018-09-06T14:26:00.000Z,28.1
2018-09-06T14:31:00.000Z,27.9
2018-09-06T14:36:00.000Z,27.8
2018-09-06T14:41:00.000Z,27.7
2018-09-06T14:46:00.000Z,27.6
2018-09-06T14:51:00.000Z,27.6
2018-09-06T14:56:00.000Z,27.5
2018-09-06T15:01:00.000Z,27.5
2018-09-06T15:06:00.000Z,27.5
2018-09-06T15:11:00.000Z,27.3
2018-09-06T15:16:00.000Z,27.0
2018-09-06T15:22:00.000Z,26.6
2018-09-06T15:27:00.000Z,26.4
2018-09-06T15:32:00.000Z,26.1
2018-09-06T15:37:00.000Z,26.0
2018-09-06T15:42:00.000Z,25.8
2018-09-06T15:47:00.000Z,25.6
2018-09-06T15:52:00.000Z,25.5
2018-09-06T15:57:00.000Z,25.3
2018-09-06T16:02:00.000Z,25.2
2018-09-06T16:07:00.000Z,25.0
2018-09-06T16:12:00.000Z,24.9
2018-09-06T16:17:00.000Z,24.8
2018-09-06T16:22:00.000Z,24.7
2018-09-06T16:27:00.000Z,24.6
2018-09-06T16:32:00.000Z,24.5
2018-09-06T16:37:00.000Z,24.3
2018-09-06T16:42:00.000Z,24.2
2018-09-06T16:47:00.000Z,24.1
2018-09-06T16:52:00.000Z,24.0
2018-09-06T16:57:00.000Z,23.8
2018-09-06T17:02:00.000Z,23.7
2018-09-06T17:07:00.000Z,23.6
2018-09-06T17:12:00.000Z,23.5
2018-09-06T17:17:00.000Z,23.4
2018-09-06T17:22:00.000Z,23.2
2018-09-06T17:27:00.000Z,23.1
2018-09-06T17:32:00.000Z,23.0
2018-09-06T17:37:00.000Z,22.9
2018-09-06T17:42:00.000Z,22.7
2018-09-06T17:47:00.000Z,22.6
2018-09-06T17:52:00.000Z,22.5
2018-09-06T17:57:00.000Z,22.5
2018-09-06T18:02:00.000Z,22.3
2018-09-06T18:07:00.000Z,22.3
2018-09-06T18:12:00.000Z,22.2
2018-09-06T18:17:00.000Z,22.1
2018-09-06T18:22:00.000Z,22.0
2018-09-06T18:27:00.000Z,21.9
2018-09-06T18:32:00.000Z,21.8
2018-09-06T18:37:00.000Z,21.8
2018-09-06T18:42:00.000Z,21.7
2018-09-06T18:47:00.000Z,21.6
2018-09-06T18:52:00.000Z,21.6
2018-09-06T18:57:00.000Z,21.5
2018-09-06T19:02:00.000Z,21.5
2018-09-06T19:07:00.000Z,21.4
2018-09-06T19:12:00.000Z,21.3
2018-09-06T19:17:00.000Z,21.3
2018-09-06T19:22:00.000Z,21.2
2018-09-06T19:27:00.000Z,21.1
2018-09-06T19:32:00.000Z,21.0
2018-09-06T19:37:00.000Z,20.9
2018-09-06T19:42:00.000Z,20.8
2018-09-06T19:47:00.000Z,20.7
2018-09-06T19:52:00.000Z,20.6
2018-09-06T19:57:00.000Z,20.5
2018-09-06T20:02:00.000Z,20.4
2018-09-06T20:07:00.000Z,20.3
2018-09-06T20:12:00.000Z,20.3
2018-09-06T20:17:00.000Z,20.2
2018-09-06T20:28:00.000Z,20.0
2018-09-06T20:33:00.000Z,19.9
2018-09-06T20:50:00.000Z,19.6
2018-09-06T20:55:00.000Z,19.5
2018-09-06T21:00:00.000Z,19.5
2018-09-06T21:05:00.000Z,19.4
2018-09-06T21:10:00.000Z,19.3
2018-09-06T21:15:00.000Z,19.3
2018-09-06T21:20:00.000Z,19.3
2018-09-06T21:25:00.000Z,19.2
2018-09-06T21:30:00.000Z,19.1
2018-09-06T21:35:00.000Z,19.1
2018-09-06T21:40:00.000Z,19.0
2018-09-06T21:45:00.000Z,18.9
2018-09-06T21:50:00.000Z,18.8
2018-09-06T21:55:00.000Z,18.8
2018-09-06T22:00:00.000Z,18.7
2018-09-06T22:05:00.000Z,18.6
2018-09-06T22:10:00.000Z,18.5
2018-09-06T22:15:00.000Z,18.5
2018-09-06T22:25:00.000Z,18.4
2018-09-06T22:30:00.000Z,18.4
2018-09-06T22:35:00.000Z,18.4
2018-09-06T22:40:00.000Z,18.4
2018-09-06T22:45:00.000Z,18.4
2018-09-06T22:50:00.000Z,18.4
2018-09-06T22:55:00.000Z,18.3
2018-09-06T23:00:00.000Z,18.3
2018-09-06T23:05:00.000Z,18.3
2018-09-06T23:10:00.000Z,18.3
2018-09-06T23:15:00.000Z,18.2
2018-09-06T23:20:00.000Z,18.2
2018-09-06T23:25:00.000Z,18.1
2018-09-06T23:31:00.000Z,18.1
2018-09-06T23:36:00.000Z,18.0
2018-09-06T23:41:00.000Z,18.0
2018-09-06T23:46:00.000Z,18.0
2018-09-06T23:51:00.000Z,18.0
2018-09-06T23:56:00.000Z,17.9
